Home > Products > Valid Products > TAF

000
FTUS46 KEKA 231739
TAFCEC
TAF
KCEC 231739Z 2318/2418 17011KT P6SM VCSH BKN030 OVC080
     FM232000 17014G20KT P6SM VCSH SCT025 BKN030 OVC080
     FM240300 16018G28KT 5SM -SHRA BR BKN015 OVC025
     FM241000 17014G22KT 3SM -RA BR SCT007 OVC015
     FM241400 16010G18KT 2SM RA BR SCT004 BKN007 OVC012=



000
FTUS46 KEKA 231739
TAFUKI
TAF
KUKI 231739Z 2318/2418 VRB04KT P6SM SCT200
     FM232000 20008G16KT P6SM SCT200
     FM240200 14006KT P6SM SCT080 BKN120
     FM241000 14005KT P6SM BKN050 OVC100
     FM241500 15004KT P6SM VCSH SCT025 OVC040=



000
FTUS46 KEKA 231739
TAFACV
TAF
KACV 231739Z 2318/2418 VRB05KT P6SM BKN035 OVC080
     FM232000 19010KT P6SM FEW025 BKN035 OVC080
     FM240300 14005KT P6SM SCT025 BKN035 OVC050
     FM240900 16008G16KT 6SM BR VCSH OVC030
     FM241200 16009KT 4SM -RA BR BKN015 OVC025
     FM241500 15006KT 2SM RA BR SCT007 OVC015=



000
FTUS46 KEKA 231121
TAFUKI
TAF
KUKI 231121Z 2312/2412 12003KT P6SM SCT250
     FM231900 15008G16KT P6SM SCT200
     FM240200 14006KT P6SM BKN150=



000
FTUS46 KEKA 231121
TAFACV
TAF
KACV 231121Z 2312/2412 10005KT P6SM BKN150
     FM232000 19010KT P6SM SCT025 BKN035
     FM240300 14005KT P6SM OVC060
     FM240900 16008G16KT P6SM OVC030=



000
FTUS46 KEKA 231121
TAFCEC
TAF
KCEC 231121Z 2312/2412 16010KT P6SM VCSH OVC025
     FM231700 17014G20KT P6SM VCSH BKN035
      TEMPO 2318/2322 -SHRA BKN025
     FM240300 16018G28KT 4SM -SHRA BR OVC015=



000
FTUS46 KEKA 230549 CCA
TAFCEC
TAF COR
KCEC 230549Z 2306/2406 16005KT P6SM OVC200
     FM230800 16007KT P6SM SCT015 OVC025
     FM231100 16010KT 4SM -DZ BR BKN007 OVC012
     FM231800 16012KT P6SM BKN020
     FM240000 16015KT P6SM -RA OVC015=



000
FTUS46 KEKA 230540
TAFUKI
TAF
KUKI 230540Z 2306/2406 VRB03KT P6SM FEW200
     FM231400 00000KT P6SM FEW012 SCT200
     FM231700 15006KT P6SM SCT200=



000
FTUS46 KEKA 230540
TAFACV
TAF
KACV 230540Z 2306/2406 09003KT P6SM SCT025 SCT200
     FM231100 14005KT 5SM -DZ BR BKN015 OVC025
     FM232000 19008KT P6SM BKN020
     FM240300 15003KT 6SM -DZ BR OVC020=



000
FTUS46 KEKA 230540
TAFCEC
TAF
KCEC 230540Z 2306/2406 15007KT P6SM SCT025
     FM230600 16010KT P6SM SCT015 BKN025
     FM231100 16010KT 4SM -DZ BR BKN007 OVC012
     FM231800 16012KT P6SM BKN020
     FM240000 16015KT P6SM -RA OVC015=



000
FTUS46 KEKA 230250 AAA
TAFACV
TAF AMD
KACV 230250Z 2303/2324 25006KT P6SM SCT025 SCT200
     FM230600 14004KT 6SM BR SCT015 OVC025
     FM231200 14005KT 5SM BR VCSH BKN015 OVC025
     FM232000 19007KT P6SM OVC020=



000
FTUS46 KEKA 230228 AAA
TAFCEC
TAF AMD
KCEC 230228Z 2302/2324 15007KT P6SM SCT025
     FM230600 16010KT 5SM -RA BR SCT015 BKN025
     FM231200 16010KT 2SM -RA BR BKN006 OVC012
     FM232000 16012KT P6SM -DZ OVC010=



000
FTUS46 KEKA 222339
TAFACV
TAF
KACV 222339Z 2300/2324 25006KT P6SM SCT025 SCT200
     FM230300 20004KT P6SM BKN025 BKN150
     FM230600 14004KT 6SM BR SCT015 OVC025
     FM231200 14005KT 5SM BR VCSH BKN015 OVC025
     FM232000 19007KT P6SM OVC020=



000
FTUS46 KEKA 222339
TAFCEC
TAF
KCEC 222339Z 2300/2324 15007KT P6SM SCT025
     FM230200 16008KT P6SM SCT015 BKN025 BKN080
     FM230600 16010KT 5SM -RA BR OVC015
     FM231200 16010KT 2SM -RA BR BKN006 OVC012
     FM232000 16012KT P6SM -DZ OVC010=



000
FTUS46 KEKA 222339
TAFUKI
TAF
KUKI 222339Z 2300/2324 26005KT P6SM FEW200
     FM230100 36004KT P6SM SCT200
     FM230500 00000KT P6SM SCT200
     FM231400 00000KT P6SM FEW012 SCT200
     FM231700 15006KT P6SM SCT200=



000
FTUS46 KEKA 222234 AAA
TAFCEC
TAF AMD
KCEC 222234Z 2223/2318 17008KT P6SM SCT025 SCT080
     FM230200 16008KT P6SM SCT015 BKN025 BKN080
     FM230600 16010KT 5SM -RA BR OVC015
     FM231200 16010KT 2SM -RA BR BKN006 OVC012=



000
FTUS46 KEKA 222212 AAA
TAFACV
TAF AMD
KACV 222212Z 2222/2318 25006KT P6SM SCT025 SCT200
     FM230300 20004KT P6SM BKN025 BKN150
     FM230600 14004KT 6SM BR SCT015 OVC025
     FM231200 14005KT 5SM BR VCSH BKN015 OVC025=



000
FTUS46 KEKA 221738
TAFUKI
TAF
KUKI 221738Z 2218/2318 VRB03KT P6SM FEW250
     FM222000 26005KT P6SM FEW200
     FM230100 36004KT P6SM SCT200
     FM230500 00000KT P6SM SCT200
     FM231400 00000KT P6SM FEW012 SCT200=



000
FTUS46 KEKA 221738
TAFACV
TAF
KACV 221738Z 2218/2318 25006KT P6SM BKN025
     FM230600 14004KT 6SM BR SCT015 OVC025
     FM231200 14005KT 5SM BR VCSH BKN015 OVC025=



000
FTUS46 KEKA 221738
TAFCEC
TAF
KCEC 221738Z 2218/2318 17007KT P6SM BKN025
     FM230600 16010KT 5SM -RA BR OVC015
     FM231200 16010KT 2SM -RA BR BKN006 OVC012=



000
FTUS46 KEKA 221500 AAA
TAFUKI
TAF AMD
KUKI 221500Z 2215/2312 VRB03KT P6SM FEW250
     FM222000 26005KT P6SM SCT200=



000
FTUS46 KEKA 221128
TAFACV
TAF
KACV 221128Z 2212/2312 10003KT P6SM OVC020
     FM221800 25004KT P6SM BKN025
     FM230600 14004KT P6SM VCSH OVC015=



000
FTUS46 KEKA 221128
TAFUKI
TAF
KUKI 221128Z 2212/2312 00000KT P6SM SKC
      TEMPO 2214/2216 BKN015
     FM222000 26005KT P6SM SCT200=



000
FTUS46 KEKA 221128
TAFCEC
TAF
KCEC 221128Z 2212/2312 15004KT P6SM OVC021
     FM221600 17007KT P6SM OVC025
     FM230600 16010KT 5SM -RA BR OVC015=



000
FTUS46 KEKA 220535
TAFACV
TAF
KACV 220535Z 2206/2306 VRB02KT P6SM OVC015
     FM220800 23002KT 2SM BR BKN003 OVC010
     FM221300 24004KT 5SM BR SCT003 OVC012
     FM221600 27006KT P6SM OVC015=



000
FTUS46 KEKA 220535
TAFUKI
TAF
KUKI 220535Z 2206/2306 VRB04KT P6SM SKC
     FM221100 VRB03KT P6SM BKN010
     FM221500 00000KT P6SM FEW010
     FM222000 14007KT P6SM SKC=



000
FTUS46 KEKA 220535
TAFCEC
TAF
KCEC 220535Z 2206/2306 16003KT P6SM SCT005 OVC015
     FM221000 16003KT 2SM BR OVC003
     FM221300 17004KT 4SM BR BKN003 OVC010
     FM221500 18005KT P6SM OVC012
     FM230200 16007KT P6SM BKN007 OVC012=



000
FTUS46 KEKA 220420 AAA
TAFACV
TAF AMD
KACV 220420Z 2204/2224 23007KT P6SM SCT007 OVC014
     FM220600 VRB02KT 2SM BR OVC003
     FM221300 15003KT 4SM BR BKN003 OVC010
     FM221700 27006KT P6SM OVC015=



000
FTUS46 KEKA 212340
TAFUKI
TAF
KUKI 212340Z 2200/2224 VRB04KT P6SM SKC
     FM221100 VRB03KT P6SM BKN010
     FM221500 00000KT P6SM FEW010
     FM222000 14007KT P6SM SKC=



000
FTUS46 KEKA 212340
TAFACV
TAF
KACV 212340Z 2200/2224 23007KT P6SM OVC019
     FM220300 VRB03KT 6SM BR OVC006
     FM220600 VRB02KT 2SM BR OVC003
     FM221300 15003KT 4SM BR BKN003 OVC010
     FM221700 27006KT P6SM OVC015=



000
FTUS46 KEKA 212340
TAFCEC
TAF
KCEC 212340Z 2200/2224 17010KT P6SM OVC018
     FM220300 16004KT 5SM BR OVC007
     FM221000 16003KT 2SM BR OVC003
     FM221300 17004KT 4SM BR BKN003 OVC010
     FM221700 18007KT P6SM OVC012=



000
FTUS46 KEKA 212143 AAA
TAFACV
TAF AMD
KACV 212143Z 2122/2218 23006KT P6SM SCT008 SCT018
      TEMPO 2122/2201 SCT008 BKN018
     FM220100 25005KT 6SM BR SCT008 BKN015
     FM220300 VRB03KT 6SM BR OVC006=



000
FTUS46 KEKA 211739
TAFCEC
TAF
KCEC 211739Z 2118/2218 17005KT 6SM BR SCT007 OVC015
     FM220000 18005KT P6SM OVC007
     FM220300 16004KT 2SM BR OVC003=



000
FTUS46 KEKA 211739
TAFACV
TAF
KACV 211739Z 2118/2218 23006KT P6SM SCT008 OVC015
     FM212000 26008KT P6SM SCT008 BKN015
      TEMPO 2122/2124 SCT008 SCT015
     FM220000 25005KT 6SM BR BKN008
     FM220300 VRB03KT 3SM BR OVC003=



000
FTUS46 KEKA 211739
TAFUKI
TAF
KUKI 211739Z 2118/2218 14003KT P6SM BKN007 BKN012
      TEMPO 2118/2119 SCT007 SCT012
     FM211900 VRB03KT P6SM SCT007 SCT012
     FM212000 27009KT P6SM SKC
     FM221000 VRB03KT P6SM BKN010=



000
FTUS46 KEKA 211631 AAB
TAFUKI
TAF AMD
KUKI 211631Z 2117/2212 14003KT P6SM BKN007
      TEMPO 2117/2118 SCT007
     FM211800 VRB03KT P6SM SCT007
     FM212000 27009KT P6SM SKC
     FM221000 VRB03KT P6SM BKN010=



000
FTUS46 KEKA 211512 AAA
TAFACV
TAF AMD
KACV 211512Z 2115/2212 VRB03KT 6SM BR BKN005 OVC009
      TEMPO 2116/2118 OVC009
     FM212000 25005KT P6SM OVC009
      TEMPO 2122/2124 SCT009=



000
FTUS46 KEKA 211456 AAB
TAFCEC
TAF AMD
KCEC 211456Z 2115/2212 17005KT 6SM BR SCT007 OVC012
      TEMPO 2115/2117 BKN007
     FM212200 18005KT P6SM OVC007
     FM220300 16004KT 4SM BR OVC003=



000
FTUS46 KEKA 211317 AAA
TAFCEC
TAF AMD
KCEC 211317Z 2113/2212 17005KT 5SM BR OVC009
      TEMPO 2113/2115 1 1/2SM BR OVC004
     FM212000 18005KT P6SM OVC007
     FM220300 16004KT 4SM BR OVC003=



000
FTUS46 KEKA 211314 AAA
TAFUKI
TAF AMD
KUKI 211314Z 2113/2212 14003KT P6SM OVC002
     FM211600 VRB03KT P6SM SCT005
     FM212000 27009KT P6SM SKC
     FM221000 VRB03KT P6SM BKN010=



000
FTUS46 KEKA 211159 CCB
TAFCEC
TAF COR
KCEC 211159Z 2112/2212 17005KT 5SM BR OVC006
      TEMPO 2112/2115 1 1/2SM BR OVC002
     FM211600 16005KT 2SM BR OVC003
     FM212000 15005KT P6SM OVC006
     FM220300 16004KT 4SM BR OVC003=



000
FTUS46 KEKA 211146 CCA
TAFACV
TAF COR
KACV 211146Z 2112/2212 02004KT P6SM OVC009
      TEMPO 2112/2115 1 1/2SM BR OVC002
     FM211600 16005KT 2SM BR OVC003
     FM212000 25005KT P6SM OVC006=



000
FTUS46 KEKA 211137
TAFUKI
TAF
KUKI 211137Z 2112/2212 31003KT P6SM BKN010
     FM211600 24006KT P6SM FEW015
     FM220200 VRB03KT P6SM SKC=



000
FTUS46 KEKA 211137
TAFACV
TAF
KACV 211137Z 2112/2212 02004KT P6SM OVC009
      TEMPO 2112/2115 1/2SM FG OVC002
     FM211600 16005KT 2SM BR OVC003
     FM212000 25005KT P6SM OVC006=



000
FTUS46 KEKA 211137
TAFCEC
TAF
KCEC 211137Z 2112/2212 20005KT 1 1/2SM BR OVC006
      TEMPO 2112/2115 1 1/2SM BR OVC002
     FM211600 16005KT 2SM BR OVC003
     FM212200 15005KT P6SM OVC006
     FM220300 16004KT 4SM BR OVC003=



000
FTUS46 KEKA 211137 CCA
TAFCEC
TAF COR
KCEC 211137Z 2112/2212 20005KT 5SM BR OVC006
      TEMPO 2112/2115 1 1/2SM BR OVC002
     FM211600 16005KT 2SM BR OVC003
     FM212200 15005KT P6SM OVC006
     FM220300 16004KT 4SM BR OVC003=



000
FTUS46 KEKA 210520
TAFUKI
TAF
KUKI 210520Z 2106/2206 16006KT P6SM SKC
     FM211000 15003KT P6SM BKN010
     FM211900 24006KT P6SM FEW015
     FM220200 VRB03KT P6SM SKC=



000
FTUS46 KEKA 210520
TAFCEC
TAF
KCEC 210520Z 2106/2206 16007KT P6SM OVC007
     FM210700 15005KT 3SM BR OVC005
      TEMPO 2111/2115 1/2SM FG OVC001
     FM211600 16005KT 2SM BR OVC003
     FM212200 15005KT P6SM OVC006
     FM220300 16004KT 4SM BR OVC003=



000
FTUS46 KEKA 210520
TAFACV
TAF
KACV 210520Z 2106/2206 36005KT P6SM SKC
     FM210800 35003KT 4SM BR OVC004
      TEMPO 2111/2115 1/2SM FG OVC001
     FM211600 16005KT 2SM BR OVC003
     FM212200 15005KT P6SM OVC006=



000
FTUS46 KEKA 210352 AAA
TAFACV
TAF AMD
KACV 210352Z 2104/2124 35006KT P6SM SCT006
      TEMPO 2111/2115 1/2SM FG OVC001
     FM211600 16005KT 2SM BR OVC003
     FM212200 15005KT P6SM OVC006=



000
FTUS46 KEKA 202326
TAFUKI
TAF
KUKI 202326Z 2100/2124 15008KT P6SM SKC
     FM210200 VRB03KT P6SM SKC
     FM211000 15003KT P6SM BKN010=



000
FTUS46 KEKA 202326
TAFCEC
TAF
KCEC 202326Z 2100/2124 17007KT 5SM BR OVC004
     FM210300 16004KT 1SM BR OVC002
      TEMPO 2111/2115 1/2SM FG OVC001
     FM211600 16005KT 2SM BR OVC003
     FM212200 15005KT P6SM OVC006=



000
FTUS46 KEKA 202326
TAFACV
TAF
KACV 202326Z 2100/2124 34011KT P6SM OVC004
     FM210300 VRB03KT 1SM BR OVC002
      TEMPO 2111/2115 1/2SM FG OVC001
     FM211600 16005KT 2SM BR OVC003
     FM212200 15005KT P6SM OVC006=



    US Dept of Commerce
    National Oceanic and Atmospheric Administration
    National Weather Service
    1325 East West Highway
    Silver Spring, MD 20910
    Page Author: NWS Internet Services Team
Disclaimer
Information Quality
Credits
Glossary
Privacy Policy
Freedom of Information Act (FOIA)
About Us
Career Opportunities